Time;durP1;ratioP1;P1;durP2;ratioP2;P2;SDS_P1;SDS_P2;PMS_P1;PMS_P2;Temp;Humidity;BMP_temperature;BMP_pressure;BME280_temperature;BME280_humidity;BME280_pressure;Samples;Min_cycle;Max_cycle;Signal;HPM_P1;HPM_P2
2021/12/17 06:01:55;;;;;;;1999.90;999.90;;;;;;;;;;5491486;22;20730;-72
2021/12/17 06:04:40;;;;;;;1999.90;999.90;;;;;;;;;;4990289;28;20211;-72
2021/12/17 06:07:26;;;;;;;1999.90;999.90;;;;;;;;;;4989162;28;20258;-72
2021/12/17 06:10:11;;;;;;;1999.90;999.90;;;;;;;;;;4989610;28;20235;-73
2021/12/17 06:12:56;;;;;;;1999.90;999.90;;;;;;;;;;4972388;28;20208;-73
2021/12/17 06:15:41;;;;;;;1999.90;999.90;;;;;;;;;;4969731;28;20214;-72
2021/12/17 06:18:27;;;;;;;1999.90;999.90;;;;;;;;;;4971571;28;20215;-72
2021/12/17 06:21:12;;;;;;;1999.90;999.90;;;;;;;;;;4971135;28;20236;-70
2021/12/17 06:23:57;;;;;;;1999.90;999.90;;;;;;;;;;4971641;28;20587;-71
2021/12/17 06:26:42;;;;;;;1999.90;999.90;;;;;;;;;;4969427;28;20219;-72
2021/12/17 06:29:27;;;;;;;1999.90;999.90;;;;;;;;;;4970542;28;20212;-73
2021/12/17 06:32:12;;;;;;;1999.90;999.90;;;;;;;;;;4971268;28;20242;-71
2021/12/17 06:34:58;;;;;;;1999.90;999.90;;;;;;;;;;4971636;28;20208;-70
2021/12/17 06:37:44;;;;;;;1999.90;999.90;;;;;;;;;;4971893;28;20686;-70
2021/12/17 06:40:29;;;;;;;1999.90;999.90;;;;;;;;;;4971179;28;20697;-72
2021/12/17 06:43:14;;;;;;;1999.90;999.90;;;;;;;;;;4970222;28;20220;-72
2021/12/17 06:46:12;;;;;;;1999.90;999.90;;;;;;;;;;4968496;28;20247;-73
2021/12/17 06:49:15;;;;;;;1999.90;999.90;;;;;;;;;;4971667;28;20690;-72
2021/12/17 06:55:16;;;;;;;1999.90;999.90;;;;;;;;;;4973137;28;20262;-70
2021/12/17 07:01:14;;;;;;;1999.90;999.90;;;;;;;;;;4971693;28;20293;-71
2021/12/17 07:10:16;;;;;;;1999.90;999.90;;;;;;;;;;4963785;28;20713;-72
2021/12/17 07:22:22;;;;;;;1999.90;999.90;;;;;;;;;;4972706;28;20223;-72
2021/12/17 07:28:28;;;;;;;1999.90;999.90;;;;;;;;;;4972500;28;20279;-73
2021/12/17 07:32:14;;;;;;;1999.90;999.90;;;;;;;;;;4973000;28;20223;-72
2021/12/17 07:34:44;;;;;;;1999.90;999.90;;;;;;;;;;4972438;28;20268;-72
2021/12/17 07:40:33;;;;;;;1999.90;999.90;;;;;;;;;;4972621;28;20204;-73
2021/12/17 07:43:35;;;;;;;1999.90;999.90;;;;;;;;;;4972779;28;20211;-73
2021/12/17 07:46:22;;;;;;;1999.90;999.90;;;;;;;;;;4973151;28;20203;-72
2021/12/17 07:49:07;;;;;;;1999.90;999.90;;;;;;;;;;4972395;28;20323;-73
2021/12/17 07:51:52;;;;;;;1999.90;999.90;;;;;;;;;;4972469;28;20574;-73
2021/12/17 07:54:38;;;;;;;1999.90;999.90;;;;;;;;;;4972909;28;20223;-73
2021/12/17 07:57:23;;;;;;;1999.90;999.90;;;;;;;;;;4972580;28;20212;-72
2021/12/17 08:00:08;;;;;;;1999.90;999.90;;;;;;;;;;4972484;28;20203;-73
2021/12/17 08:02:53;;;;;;;1999.90;999.90;;;;;;;;;;4972519;28;20587;-73
2021/12/17 08:05:39;;;;;;;1999.90;999.90;;;;;;;;;;4972156;28;20283;-71
2021/12/17 08:08:24;;;;;;;1999.90;999.90;;;;;;;;;;4972176;28;20608;-73
2021/12/17 08:11:10;;;;;;;1999.90;999.90;;;;;;;;;;4972227;28;20733;-73
2021/12/17 08:13:57;;;;;;;1999.90;999.90;;;;;;;;;;4972409;28;20258;-73
2021/12/17 08:16:47;;;;;;;1999.90;999.90;;;;;;;;;;4972743;28;20226;-74
2021/12/17 08:25:49;;;;;;;1999.90;999.90;;;;;;;;;;4975869;28;20238;-73
2021/12/17 08:41:54;;;;;;;1999.90;999.90;;;;;;;;;;5129599;27;20555;-73
2021/12/17 08:44:39;;;;;;;1999.90;999.90;;;;;;;;;;5109558;28;20333;-71
2021/12/17 08:47:24;;;;;;;1999.90;999.90;;;;;;;;;;5108873;28;20918;-73
2021/12/17 08:50:11;;;;;;;1999.90;999.90;;;;;;;;;;5109241;28;20230;-72
2021/12/17 08:52:56;;;;;;;1999.90;999.90;;;;;;;;;;5109263;28;20207;-73
2021/12/17 08:55:41;;;;;;;1999.90;999.90;;;;;;;;;;5109138;28;20577;-73
2021/12/17 08:58:28;;;;;;;1999.90;999.90;;;;;;;;;;5109119;28;20683;-73
2021/12/17 09:01:12;;;;;;;1999.90;999.90;;;;;;;;;;5108986;28;20319;-73
2021/12/17 09:03:58;;;;;;;1999.90;999.90;;;;;;;;;;5098696;28;20219;-72
2021/12/17 09:06:43;;;;;;;1999.90;999.90;;;;;;;;;;5088431;28;20207;-72
2021/12/17 09:09:28;;;;;;;1999.90;999.90;;;;;;;;;;5088403;28;20308;-73
2021/12/17 09:12:13;;;;;;;1999.90;999.90;;;;;;;;;;5088258;28;20297;-72
2021/12/17 09:14:59;;;;;;;1999.90;999.90;;;;;;;;;;5094565;28;20330;-73
2021/12/17 09:17:46;;;;;;;1999.90;999.90;;;;;;;;;;5103211;28;20208;-73
2021/12/17 09:20:31;;;;;;;1999.90;999.90;;;;;;;;;;5102399;28;20255;-71
2021/12/17 09:23:15;;;;;;;1999.90;999.90;;;;;;;;;;5095821;28;20211;-73
2021/12/17 09:26:00;;;;;;;1999.90;999.90;;;;;;;;;;5103240;28;20611;-73
2021/12/17 09:28:45;;;;;;;1999.90;999.90;;;;;;;;;;5108256;28;20716;-73
2021/12/17 09:31:32;;;;;;;1999.90;999.90;;;;;;;;;;5108381;28;20727;-73
2021/12/17 09:34:16;;;;;;;1999.90;999.90;;;;;;;;;;5108656;28;20726;-73
2021/12/17 09:37:01;;;;;;;1999.90;999.90;;;;;;;;;;5107011;28;20839;-71
2021/12/17 09:39:46;;;;;;;1999.90;999.90;;;;;;;;;;5096425;28;20274;-73
2021/12/17 09:42:31;;;;;;;1999.90;999.90;;;;;;;;;;5095241;28;20785;-75
2021/12/17 09:45:17;;;;;;;1999.90;999.90;;;;;;;;;;5094764;28;20343;-74
2021/12/17 09:48:04;;;;;;;1999.90;999.90;;;;;;;;;;5094279;28;20341;-74
2021/12/17 09:50:49;;;;;;;1999.90;999.90;;;;;;;;;;5092035;28;20239;-74
2021/12/17 09:53:35;;;;;;;1999.90;999.90;;;;;;;;;;5094312;28;20208;-73
2021/12/17 09:56:20;;;;;;;1999.90;999.90;;;;;;;;;;5094629;28;20210;-74
2021/12/17 09:59:05;;;;;;;1999.90;999.90;;;;;;;;;;5086361;28;20262;-74
2021/12/17 10:01:50;;;;;;;1999.90;999.90;;;;;;;;;;5082399;28;20223;-73
2021/12/17 10:04:40;;;;;;;1999.90;999.90;;;;;;;;;;5093382;28;20216;-74
2021/12/17 10:07:26;;;;;;;1999.90;999.90;;;;;;;;;;5090844;28;20402;-74
2021/12/17 10:10:12;;;;;;;1999.90;999.90;;;;;;;;;;5093782;28;20336;-73
2021/12/17 10:13:06;;;;;;;1999.90;999.90;;;;;;;;;;5109212;28;20206;-73
2021/12/17 10:15:52;;;;;;;1999.90;999.90;;;;;;;;;;5098388;28;20219;-73
2021/12/17 10:18:38;;;;;;;1999.90;999.90;;;;;;;;;;5092719;28;20277;-73
2021/12/17 10:21:25;;;;;;;1999.90;999.90;;;;;;;;;;5091385;28;20657;-73
2021/12/17 10:24:21;;;;;;;1999.90;999.90;;;;;;;;;;5099062;28;20395;-74
2021/12/17 10:27:18;;;;;;;1999.90;999.90;;;;;;;;;;5101099;28;20330;-73
2021/12/17 10:30:14;;;;;;;1999.90;999.90;;;;;;;;;;5090757;28;20242;-73
2021/12/17 10:33:00;;;;;;;1999.90;999.90;;;;;;;;;;5093917;28;20399;-73
2021/12/17 10:35:48;;;;;;;1999.90;999.90;;;;;;;;;;5089940;28;20365;-74
2021/12/17 10:38:35;;;;;;;1999.90;999.90;;;;;;;;;;5087346;28;20339;-73
2021/12/17 10:41:26;;;;;;;1999.90;999.90;;;;;;;;;;5085301;28;20244;-74
2021/12/17 10:44:11;;;;;;;1999.90;999.90;;;;;;;;;;5093481;28;20693;-74
2021/12/17 10:47:08;;;;;;;1999.90;999.90;;;;;;;;;;5093180;28;20199;-74
2021/12/17 10:49:53;;;;;;;1999.90;999.90;;;;;;;;;;5091664;28;20572;-74
2021/12/17 10:52:44;;;;;;;1999.90;999.90;;;;;;;;;;5089374;28;20597;-74
2021/12/17 10:55:31;;;;;;;1999.90;999.90;;;;;;;;;;5087939;28;20335;-74
2021/12/17 10:58:16;;;;;;;1999.90;999.90;;;;;;;;;;5073784;28;20683;-73
2021/12/17 11:01:06;;;;;;;1999.90;999.90;;;;;;;;;;5083375;28;20679;-73
2021/12/17 11:03:51;;;;;;;1999.90;999.90;;;;;;;;;;5077213;28;20472;-74
2021/12/17 11:06:50;;;;;;;1999.90;999.90;;;;;;;;;;5085333;28;20334;-74
2021/12/17 11:09:39;;;;;;;1999.90;999.90;;;;;;;;;;5086914;28;20219;-72
2021/12/17 11:12:28;;;;;;;1999.90;999.90;;;;;;;;;;5086036;28;20305;-73
2021/12/17 11:15:17;;;;;;;1999.90;999.90;;;;;;;;;;5092825;28;20586;-72
2021/12/17 11:18:03;;;;;;;1999.90;999.90;;;;;;;;;;5091990;28;20211;-73
2021/12/17 11:20:48;;;;;;;1999.90;999.90;;;;;;;;;;5100283;28;20267;-72
2021/12/17 11:23:33;;;;;;;1999.90;999.90;;;;;;;;;;5090853;28;20289;-72
2021/12/17 11:26:18;;;;;;;1999.90;999.90;;;;;;;;;;5088715;28;20338;-72
2021/12/17 11:29:05;;;;;;;1999.90;999.90;;;;;;;;;;5105469;28;20199;-70
2021/12/17 11:31:50;;;;;;;1999.90;999.90;;;;;;;;;;5087456;28;20495;-71
2021/12/17 11:34:35;;;;;;;1999.90;999.90;;;;;;;;;;5098358;28;20718;-72
2021/12/17 11:37:21;;;;;;;1999.90;999.90;;;;;;;;;;5095443;28;20214;-74
2021/12/17 11:40:09;;;;;;;1999.90;999.90;;;;;;;;;;5089984;28;20210;-73
2021/12/17 11:43:14;;;;;;;1999.90;999.90;;;;;;;;;;5091304;28;20223;-73
2021/12/17 11:46:01;;;;;;;1999.90;999.90;;;;;;;;;;5084632;28;20350;-73
2021/12/17 11:48:49;;;;;;;1999.90;999.90;;;;;;;;;;5088359;28;20198;-73
2021/12/17 11:51:35;;;;;;;1999.90;999.90;;;;;;;;;;5092989;28;20238;-74
2021/12/17 11:54:26;;;;;;;1999.90;999.90;;;;;;;;;;5093425;28;20420;-74
2021/12/17 11:57:12;;;;;;;1999.90;999.90;;;;;;;;;;5093090;28;20206;-71
2021/12/17 11:59:57;;;;;;;1999.90;999.90;;;;;;;;;;5094989;28;20356;-73
2021/12/17 12:02:48;;;;;;;1999.90;999.90;;;;;;;;;;5099163;28;20703;-73
2021/12/17 12:05:34;;;;;;;1999.90;999.90;;;;;;;;;;5094979;28;20281;-71
2021/12/17 12:08:28;;;;;;;1999.90;999.90;;;;;;;;;;5096540;28;20215;-73
2021/12/17 12:11:13;;;;;;;1999.90;999.90;;;;;;;;;;5093573;28;20844;-73
2021/12/17 12:13:59;;;;;;;1999.90;999.90;;;;;;;;;;5085772;28;20204;-74
2021/12/17 12:16:44;;;;;;;1999.90;999.90;;;;;;;;;;5087987;28;20698;-73
2021/12/17 12:19:47;;;;;;;1999.90;999.90;;;;;;;;;;5094631;28;20206;-73
2021/12/17 12:22:32;;;;;;;1999.90;999.90;;;;;;;;;;5090581;28;20274;-74
2021/12/17 12:25:30;;;;;;;1999.90;999.90;;;;;;;;;;5090651;28;20701;-74
2021/12/17 12:28:15;;;;;;;1999.90;999.90;;;;;;;;;;5089962;28;20204;-73
2021/12/17 12:31:00;;;;;;;1999.90;999.90;;;;;;;;;;5101728;28;20308;-73
2021/12/17 12:34:00;;;;;;;1999.90;999.90;;;;;;;;;;5108770;28;20229;-72
2021/12/17 12:36:57;;;;;;;1999.90;999.90;;;;;;;;;;5088699;28;20207;-73
2021/12/17 12:39:46;;;;;;;1999.90;999.90;;;;;;;;;;5089509;28;20211;-74
2021/12/17 12:42:32;;;;;;;1999.90;999.90;;;;;;;;;;5102641;28;20518;-74
2021/12/17 12:45:17;;;;;;;1999.90;999.90;;;;;;;;;;5103529;28;20212;-74
2021/12/17 12:48:02;;;;;;;1999.90;999.90;;;;;;;;;;5106702;28;20211;-74
2021/12/17 12:50:47;;;;;;;1999.90;999.90;;;;;;;;;;5090294;28;20309;-73
2021/12/17 12:53:34;;;;;;;1999.90;999.90;;;;;;;;;;5090486;28;20812;-74
2021/12/17 12:56:20;;;;;;;1999.90;999.90;;;;;;;;;;5090717;28;20219;-74
2021/12/17 12:59:06;;;;;;;1999.90;999.90;;;;;;;;;;5090490;28;20203;-74
2021/12/17 13:01:51;;;;;;;1999.90;999.90;;;;;;;;;;5086636;28;20235;-73
2021/12/17 13:04:36;;;;;;;1999.90;999.90;;;;;;;;;;5098452;28;20231;-73
2021/12/17 13:07:32;;;;;;;1999.90;999.90;;;;;;;;;;5094399;28;20210;-73
2021/12/17 13:10:20;;;;;;;1999.90;999.90;;;;;;;;;;5087973;28;20720;-71
2021/12/17 13:13:11;;;;;;;1999.90;999.90;;;;;;;;;;5085913;28;20297;-72
2021/12/17 13:16:11;;;;;;;1999.90;999.90;;;;;;;;;;5097939;28;20897;-71
2021/12/17 13:22:03;;;;;;;1999.90;999.90;;;;;;;;;;5104571;28;20277;-73
2021/12/17 13:24:48;;;;;;;1999.90;999.90;;;;;;;;;;5091634;28;20231;-73
2021/12/17 13:27:34;;;;;;;1999.90;999.90;;;;;;;;;;5098496;28;20216;-72
2021/12/17 13:30:23;;;;;;;1999.90;999.90;;;;;;;;;;5092566;28;20269;-73
2021/12/17 13:33:08;;;;;;;1999.90;999.90;;;;;;;;;;5095427;28;20227;-73
2021/12/17 13:35:53;;;;;;;1999.90;999.90;;;;;;;;;;5096214;28;20689;-72
2021/12/17 13:38:41;;;;;;;1999.90;999.90;;;;;;;;;;5094729;28;20211;-72
2021/12/17 13:41:40;;;;;;;1999.90;999.90;;;;;;;;;;5087122;28;20355;-71
2021/12/17 13:44:28;;;;;;;1999.90;999.90;;;;;;;;;;5087478;28;20271;-73
2021/12/17 13:47:15;;;;;;;1999.90;999.90;;;;;;;;;;5082719;28;20586;-73
2021/12/17 13:50:02;;;;;;;1999.90;999.90;;;;;;;;;;5082215;28;20273;-73
2021/12/17 13:52:48;;;;;;;1999.90;999.90;;;;;;;;;;5091641;28;20636;-73
2021/12/17 13:55:36;;;;;;;1999.90;999.90;;;;;;;;;;5075331;28;20212;-74
2021/12/17 13:58:22;;;;;;;1999.90;999.90;;;;;;;;;;5073942;28;20215;-73
2021/12/17 14:01:09;;;;;;;1999.90;999.90;;;;;;;;;;5075056;28;20446;-73
2021/12/17 14:03:54;;;;;;;1999.90;999.90;;;;;;;;;;5086067;28;20253;-72
2021/12/17 14:06:50;;;;;;;1999.90;999.90;;;;;;;;;;5092154;28;20204;-73
2021/12/17 14:09:36;;;;;;;1999.90;999.90;;;;;;;;;;5092290;28;20371;-73
2021/12/17 14:12:27;;;;;;;1999.90;999.90;;;;;;;;;;5094205;28;20240;-73
2021/12/17 14:15:13;;;;;;;1999.90;999.90;;;;;;;;;;5094324;28;20200;-73
2021/12/17 14:18:00;;;;;;;1999.90;999.90;;;;;;;;;;5094089;28;20203;-73
2021/12/17 14:20:46;;;;;;;1999.90;999.90;;;;;;;;;;5094101;28;20756;-74
2021/12/17 14:23:32;;;;;;;1999.90;999.90;;;;;;;;;;5086699;28;20292;-73
2021/12/17 14:26:17;;;;;;;1999.90;999.90;;;;;;;;;;5086035;28;20212;-73
2021/12/17 14:29:08;;;;;;;1999.90;999.90;;;;;;;;;;5091038;28;20207;-74
2021/12/17 14:31:58;;;;;;;1999.90;999.90;;;;;;;;;;5088259;28;20744;-71
2021/12/17 14:34:45;;;;;;;1999.90;999.90;;;;;;;;;;5088522;28;20203;-71
2021/12/17 14:37:30;;;;;;;1999.90;999.90;;;;;;;;;;5091888;28;20386;-73
2021/12/17 14:40:26;;;;;;;1999.90;999.90;;;;;;;;;;5090079;28;20709;-73
2021/12/17 14:43:21;;;;;;;1999.90;999.90;;;;;;;;;;5082234;28;20258;-73
2021/12/17 14:46:14;;;;;;;1999.90;999.90;;;;;;;;;;5080451;28;20607;-73
2021/12/17 14:49:19;;;;;;;1999.90;999.90;;;;;;;;;;5087473;28;20294;-73
2021/12/17 15:01:18;;;;;;;1999.90;999.90;;;;;;;;;;5078101;28;20266;-74
2021/12/17 15:04:03;;;;;;;1999.90;999.90;;;;;;;;;;5089836;28;20708;-73
2021/12/17 15:06:49;;;;;;;1999.90;999.90;;;;;;;;;;5094009;28;20208;-74
2021/12/17 15:09:39;;;;;;;1999.90;999.90;;;;;;;;;;5093495;28;20705;-73
2021/12/17 15:12:37;;;;;;;1999.90;999.90;;;;;;;;;;5089734;28;20363;-73
2021/12/17 15:15:23;;;;;;;1999.90;999.90;;;;;;;;;;5090376;28;20710;-73
2021/12/17 15:18:15;;;;;;;1999.90;999.90;;;;;;;;;;5092135;28;20392;-73
2021/12/17 15:21:00;;;;;;;1999.90;999.90;;;;;;;;;;5091845;28;20223;-74
2021/12/17 15:23:44;;;;;;;1999.90;999.90;;;;;;;;;;5086096;28;20322;-73
2021/12/17 15:26:31;;;;;;;1999.90;999.90;;;;;;;;;;5093026;28;20204;-73
2021/12/17 15:29:17;;;;;;;1999.90;999.90;;;;;;;;;;5092517;28;20208;-73
2021/12/17 15:32:02;;;;;;;1999.90;999.90;;;;;;;;;;5089497;28;20270;-70
2021/12/17 15:34:47;;;;;;;1999.90;999.90;;;;;;;;;;5084689;28;20227;-73
2021/12/17 15:37:33;;;;;;;1999.90;999.90;;;;;;;;;;5085708;28;20307;-73
2021/12/17 15:40:19;;;;;;;1999.90;999.90;;;;;;;;;;5088208;28;20224;-74
2021/12/17 15:43:05;;;;;;;1999.90;999.90;;;;;;;;;;5089466;28;20744;-74
2021/12/17 15:45:51;;;;;;;1999.90;999.90;;;;;;;;;;5086698;28;20266;-72
2021/12/17 15:48:37;;;;;;;1999.90;999.90;;;;;;;;;;5082477;28;20212;-73
2021/12/17 15:51:22;;;;;;;1999.90;999.90;;;;;;;;;;5086846;28;20228;-74
2021/12/17 15:54:07;;;;;;;1999.90;999.90;;;;;;;;;;5088715;28;20219;-74
2021/12/17 15:56:51;;;;;;;1999.90;999.90;;;;;;;;;;5095342;28;20258;-74
2021/12/17 15:59:38;;;;;;;1999.90;999.90;;;;;;;;;;5090713;28;20215;-74
2021/12/17 16:02:23;;;;;;;1999.90;999.90;;;;;;;;;;5088264;28;20279;-74
2021/12/17 16:05:09;;;;;;;1999.90;999.90;;;;;;;;;;5093183;28;20230;-73
2021/12/17 16:07:56;;;;;;;1999.90;999.90;;;;;;;;;;5102382;28;20199;-73
2021/12/17 16:17:07;;;;;;;1999.90;999.90;;;;;;;;;;5095927;28;20252;-72
2021/12/17 16:22:55;;;;;;;1999.90;999.90;;;;;;;;;;5090492;28;20238;-72
2021/12/17 16:25:40;;;;;;;1999.90;999.90;;;;;;;;;;5091570;28;20208;-73
2021/12/17 16:28:24;;;;;;;1999.90;999.90;;;;;;;;;;5093275;28;20241;-74
2021/12/17 16:31:10;;;;;;;1999.90;999.90;;;;;;;;;;5099304;28;20301;-73
2021/12/17 16:33:58;;;;;;;1999.90;999.90;;;;;;;;;;5088818;28;20236;-73
2021/12/17 16:36:44;;;;;;;1999.90;999.90;;;;;;;;;;5100979;28;21034;-74
2021/12/17 16:39:29;;;;;;;1999.90;999.90;;;;;;;;;;5089868;28;20325;-74
2021/12/17 16:42:16;;;;;;;1999.90;999.90;;;;;;;;;;5094437;28;20293;-73
2021/12/17 16:45:21;;;;;;;1999.90;999.90;;;;;;;;;;5100869;28;20305;-72
2021/12/17 16:48:06;;;;;;;1999.90;999.90;;;;;;;;;;5093622;28;20256;-73
2021/12/17 16:50:53;;;;;;;1999.90;999.90;;;;;;;;;;5088755;28;20240;-72
2021/12/17 16:53:38;;;;;;;1999.90;999.90;;;;;;;;;;5099998;28;20297;-72
2021/12/17 16:56:23;;;;;;;1999.90;999.90;;;;;;;;;;5102652;28;20335;-72
2021/12/17 16:59:09;;;;;;;1999.90;999.90;;;;;;;;;;5100567;28;20215;-73
2021/12/17 17:01:54;;;;;;;1999.90;999.90;;;;;;;;;;5094843;28;20229;-73
2021/12/17 17:04:38;;;;;;;1999.90;999.90;;;;;;;;;;5100171;28;20330;-73
2021/12/17 17:07:26;;;;;;;1999.90;999.90;;;;;;;;;;5093628;28;20202;-72
2021/12/17 17:10:13;;;;;;;1999.90;999.90;;;;;;;;;;5092569;28;20222;-72
2021/12/17 17:13:01;;;;;;;1999.90;999.90;;;;;;;;;;5091380;28;20212;-72
2021/12/17 17:15:46;;;;;;;1999.90;999.90;;;;;;;;;;5093119;28;20207;-73
2021/12/17 17:18:31;;;;;;;1999.90;999.90;;;;;;;;;;5093441;28;20215;-71
2021/12/17 17:21:16;;;;;;;1999.90;999.90;;;;;;;;;;5087715;28;20239;-73
2021/12/17 17:24:03;;;;;;;1999.90;999.90;;;;;;;;;;5086691;28;20303;-72
2021/12/17 17:26:49;;;;;;;1999.90;999.90;;;;;;;;;;5095035;28;20716;-72
2021/12/17 17:29:34;;;;;;;1999.90;999.90;;;;;;;;;;5094868;28;20413;-73
2021/12/17 17:32:19;;;;;;;1999.90;999.90;;;;;;;;;;5094705;28;20428;-72
2021/12/17 17:35:04;;;;;;;1999.90;999.90;;;;;;;;;;5094782;28;20207;-73
2021/12/17 17:37:50;;;;;;;1999.90;999.90;;;;;;;;;;5094203;28;20204;-73
2021/12/17 17:40:37;;;;;;;1999.90;999.90;;;;;;;;;;5093153;28;20215;-73
2021/12/17 17:43:22;;;;;;;1999.90;999.90;;;;;;;;;;5091967;28;20208;-71
2021/12/17 17:46:07;;;;;;;1999.90;999.90;;;;;;;;;;5094799;28;20569;-71
2021/12/17 17:48:52;;;;;;;1999.90;999.90;;;;;;;;;;5091599;28;20212;-72
2021/12/17 17:51:39;;;;;;;1999.90;999.90;;;;;;;;;;5093929;28;20231;-73
2021/12/17 17:54:23;;;;;;;1999.90;999.90;;;;;;;;;;5089911;28;20216;-73
2021/12/17 17:57:10;;;;;;;1999.90;999.90;;;;;;;;;;5092929;28;20451;-74
2021/12/17 17:59:55;;;;;;;1999.90;999.90;;;;;;;;;;5093201;28;20200;-73
2021/12/17 18:02:40;;;;;;;1999.90;999.90;;;;;;;;;;5093938;28;20219;-72
2021/12/17 18:05:25;;;;;;;1999.90;999.90;;;;;;;;;;5093995;28;20280;-73
2021/12/17 18:08:11;;;;;;;1999.90;999.90;;;;;;;;;;5082420;28;20208;-74
2021/12/17 18:10:56;;;;;;;1999.90;999.90;;;;;;;;;;5091715;28;20232;-73
2021/12/17 18:13:42;;;;;;;1999.90;999.90;;;;;;;;;;5091344;28;20216;-73
2021/12/17 18:16:28;;;;;;;1999.90;999.90;;;;;;;;;;5093884;28;20200;-73
2021/12/17 18:19:13;;;;;;;1999.90;999.90;;;;;;;;;;5089726;28;20447;-73
2021/12/17 18:21:57;;;;;;;1999.90;999.90;;;;;;;;;;5089798;28;20223;-73
2021/12/17 18:24:43;;;;;;;1999.90;999.90;;;;;;;;;;5091686;28;20211;-72
2021/12/17 18:27:27;;;;;;;1999.90;999.90;;;;;;;;;;5093970;28;20207;-72
2021/12/17 18:30:15;;;;;;;1999.90;999.90;;;;;;;;;;5092839;28;20208;-71
2021/12/17 18:33:00;;;;;;;1999.90;999.90;;;;;;;;;;5087939;28;20228;-73
2021/12/17 18:35:45;;;;;;;1999.90;999.90;;;;;;;;;;5091537;28;20208;-72
2021/12/17 18:38:31;;;;;;;1999.90;999.90;;;;;;;;;;5083603;28;20282;-72
2021/12/17 18:41:23;;;;;;;1999.90;999.90;;;;;;;;;;5085018;28;20246;-72
2021/12/17 18:44:08;;;;;;;1999.90;999.90;;;;;;;;;;5086974;28;20203;-73
2021/12/17 18:46:54;;;;;;;1999.90;999.90;;;;;;;;;;5088705;28;20728;-73
2021/12/17 18:49:39;;;;;;;1999.90;999.90;;;;;;;;;;5092869;28;20208;-72
2021/12/17 18:52:24;;;;;;;1999.90;999.90;;;;;;;;;;5087968;28;20938;-71
2021/12/17 18:55:09;;;;;;;1999.90;999.90;;;;;;;;;;5091905;28;20293;-72
2021/12/17 18:57:55;;;;;;;1999.90;999.90;;;;;;;;;;5093598;28;20251;-72
2021/12/17 19:00:40;;;;;;;1999.90;999.90;;;;;;;;;;5088260;28;20227;-74
2021/12/17 19:03:28;;;;;;;1999.90;999.90;;;;;;;;;;5092941;28;20250;-72
2021/12/17 19:06:12;;;;;;;1999.90;999.90;;;;;;;;;;5091552;28;20499;-71
2021/12/17 19:08:57;;;;;;;1999.90;999.90;;;;;;;;;;5092915;28;20212;-73
2021/12/17 19:11:45;;;;;;;1999.90;999.90;;;;;;;;;;5087206;28;20357;-71
2021/12/17 19:14:32;;;;;;;1999.90;999.90;;;;;;;;;;5092268;28;20253;-72
2021/12/17 19:17:19;;;;;;;1999.90;999.90;;;;;;;;;;5092149;28;20898;-74
2021/12/17 19:20:13;;;;;;;1999.90;999.90;;;;;;;;;;5092894;28;20690;-72
2021/12/17 19:23:00;;;;;;;1999.90;999.90;;;;;;;;;;5089752;28;20207;-74
2021/12/17 19:25:45;;;;;;;1999.90;999.90;;;;;;;;;;5092867;28;20207;-73
2021/12/17 19:28:30;;;;;;;1999.90;999.90;;;;;;;;;;5087600;28;20225;-73
2021/12/17 19:31:15;;;;;;;1999.90;999.90;;;;;;;;;;5086096;28;20239;-73
2021/12/17 19:34:00;;;;;;;1999.90;999.90;;;;;;;;;;5090008;28;20226;-73
2021/12/17 19:36:49;;;;;;;1999.90;999.90;;;;;;;;;;5092770;28;20207;-72
2021/12/17 19:39:35;;;;;;;1999.90;999.90;;;;;;;;;;5078178;28;20216;-73
2021/12/17 19:42:20;;;;;;;1999.90;999.90;;;;;;;;;;5092574;28;20294;-73
2021/12/17 19:45:06;;;;;;;1999.90;999.90;;;;;;;;;;5092350;28;20199;-72
2021/12/17 19:48:00;;;;;;;1999.90;999.90;;;;;;;;;;5072035;28;20192;-72
2021/12/17 19:50:44;;;;;;;1999.90;999.90;;;;;;;;;;5076900;28;20248;-72
2021/12/17 19:53:31;;;;;;;1999.90;999.90;;;;;;;;;;5085772;28;20212;-73
2021/12/17 19:56:16;;;;;;;1999.90;999.90;;;;;;;;;;5090241;28;20582;-72
2021/12/17 19:59:01;;;;;;;1999.90;999.90;;;;;;;;;;5079629;28;20324;-71
2021/12/17 20:01:46;;;;;;;1999.90;999.90;;;;;;;;;;5089187;28;20227;-72
2021/12/17 20:04:31;;;;;;;1999.90;999.90;;;;;;;;;;5087080;28;20200;-72
2021/12/17 20:07:16;;;;;;;1999.90;999.90;;;;;;;;;;5085910;28;20579;-72
2021/12/17 20:10:03;;;;;;;1999.90;999.90;;;;;;;;;;5083307;28;20289;-73
2021/12/17 20:12:48;;;;;;;1999.90;999.90;;;;;;;;;;5087066;28;20434;-72
2021/12/17 20:15:33;;;;;;;1999.90;999.90;;;;;;;;;;5090418;28;20216;-73
2021/12/17 20:18:18;;;;;;;1999.90;999.90;;;;;;;;;;5091747;28;20219;-72
2021/12/17 20:21:03;;;;;;;1999.90;999.90;;;;;;;;;;5086268;28;20220;-74
2021/12/17 20:23:49;;;;;;;1999.90;999.90;;;;;;;;;;5088498;28;20314;-73
2021/12/17 20:26:36;;;;;;;1999.90;999.90;;;;;;;;;;5087318;28;20341;-72
2021/12/17 20:29:21;;;;;;;1999.90;999.90;;;;;;;;;;5091782;28;20200;-71
2021/12/17 20:32:07;;;;;;;1999.90;999.90;;;;;;;;;;5088543;28;20667;-73
2021/12/17 20:34:52;;;;;;;1999.90;999.90;;;;;;;;;;5091740;28;20204;-72
2021/12/17 20:37:37;;;;;;;1999.90;999.90;;;;;;;;;;5085437;28;20220;-72
2021/12/17 20:40:24;;;;;;;1999.90;999.90;;;;;;;;;;5076669;28;20907;-73
2021/12/17 20:43:16;;;;;;;1999.90;999.90;;;;;;;;;;5091652;28;20200;-73
2021/12/17 20:46:01;;;;;;;1999.90;999.90;;;;;;;;;;5091584;28;20216;-73
2021/12/17 20:48:46;;;;;;;1999.90;999.90;;;;;;;;;;5091599;28;20212;-72
2021/12/17 20:51:31;;;;;;;1999.90;999.90;;;;;;;;;;5091491;28;20235;-74
2021/12/17 20:54:17;;;;;;;1999.90;999.90;;;;;;;;;;5082113;28;20223;-74
2021/12/17 20:57:02;;;;;;;1999.90;999.90;;;;;;;;;;5085872;28;20269;-73
2021/12/17 20:59:49;;;;;;;1999.90;999.90;;;;;;;;;;5090755;28;20215;-73
2021/12/17 21:02:34;;;;;;;1999.90;999.90;;;;;;;;;;5086804;28;20308;-73
2021/12/17 21:05:20;;;;;;;1999.90;999.90;;;;;;;;;;5091555;28;20342;-73
2021/12/17 21:08:08;;;;;;;1999.90;999.90;;;;;;;;;;5091164;28;20261;-72
2021/12/17 21:10:53;;;;;;;1999.90;999.90;;;;;;;;;;5091996;28;20369;-72
2021/12/17 21:13:47;;;;;;;1999.90;999.90;;;;;;;;;;5091092;28;20231;-73
2021/12/17 21:16:33;;;;;;;1999.90;999.90;;;;;;;;;;5091545;28;20261;-72
2021/12/17 21:19:20;;;;;;;1999.90;999.90;;;;;;;;;;5090975;28;20215;-72
2021/12/17 21:22:05;;;;;;;1999.90;999.90;;;;;;;;;;5091393;28;20274;-73
2021/12/17 21:24:50;;;;;;;1999.90;999.90;;;;;;;;;;5089142;28;20306;-72
2021/12/17 21:27:34;;;;;;;1999.90;999.90;;;;;;;;;;5091304;28;20211;-71
2021/12/17 21:30:20;;;;;;;1999.90;999.90;;;;;;;;;;5091378;28;20318;-72
2021/12/17 21:33:06;;;;;;;1999.90;999.90;;;;;;;;;;5091358;28;20325;-71
2021/12/17 21:35:54;;;;;;;1999.90;999.90;;;;;;;;;;5081872;28;21005;-71
2021/12/17 21:38:39;;;;;;;1999.90;999.90;;;;;;;;;;5093477;28;20208;-72
2021/12/17 21:41:25;;;;;;;1999.90;999.90;;;;;;;;;;5094885;28;20242;-72
2021/12/17 21:44:11;;;;;;;1999.90;999.90;;;;;;;;;;5094821;28;20574;-72
2021/12/17 21:46:55;;;;;;;1999.90;999.90;;;;;;;;;;5094658;28;20200;-72
2021/12/17 21:49:42;;;;;;;1999.90;999.90;;;;;;;;;;5094439;28;20231;-73
2021/12/17 21:52:27;;;;;;;1999.90;999.90;;;;;;;;;;5092403;28;20380;-72
2021/12/17 21:55:12;;;;;;;1999.90;999.90;;;;;;;;;;5094619;28;20199;-72
2021/12/17 21:57:57;;;;;;;1999.90;999.90;;;;;;;;;;5094154;28;20238;-73
